This is the latest recevied weather packets stored in our database for station/object KY0TEQ-13. If no packets are shown the sender has not sent any weather packets the latest 10 day(s).
| Time | Temp. | Humidity | Pressure | Rain* | Wind** | Luminosity | Snow |
|---|---|---|---|---|---|---|---|
| 1777793036 | 5.56° C | 39% | 1307.1 hPa | 0 mm | - | 0 W/m² | - |
| 1777792732 | 6.67° C | 38% | 1307.2 hPa | 0 mm | - | 0 W/m² | - |
| 1777792429 | 7.22° C | 35% | 1307.2 hPa | 0 mm | - | 0 W/m² | - |
| 1777792125 | 7.22° C | 35% | 1307.2 hPa | 0 mm | - | 0 W/m² | - |
| 1777791824 | 6.67° C | 36% | 1307.2 hPa | 0 mm | - | 0 W/m² | - |
| 1777791522 | 6.67° C | 35% | 1306.9 hPa | 0 mm | - | 0 W/m² | - |
| 1777791218 | 7.22° C | 34% | 1307.1 hPa | 0 mm | - | 0 W/m² | - |
| 1777790916 | 7.22° C | 34% | 1307.1 hPa | 0 mm | - | 0 W/m² | - |
| 1777790613 | 6.11° C | 36% | 1306.9 hPa | 0 mm | - | 0 W/m² | - |
| 1777790309 | 5.56° C | 39% | 1306.9 hPa | 0 mm | - | 0 W/m² | - |
| 1777790003 | 5° C | 40% | 1306.8 hPa | 0 mm | - | 0 W/m² | - |
| 1777789700 | 6.11° C | 37% | 1307.2 hPa | 0 mm | - | 0 W/m² | - |
| 1777789399 | 6.67° C | 35% | 1306.9 hPa | 0 mm | - | 0 W/m² | - |
| 1777789096 | 5.56° C | 37% | 1306.8 hPa | 0 mm | - | 0 W/m² | - |
| 1777788793 | 4.44° C | 41% | 1306.9 hPa | 0 mm | - | 0 W/m² | - |
| 1777788488 | 5.56° C | 39% | 1306.7 hPa | 0 mm | - | 0 W/m² | - |
| 1777788183 | 6.11° C | 38% | 1306.6 hPa | 0 mm | - | 0 W/m² | - |
| 1777787878 | 6.67° C | 35% | 1306.8 hPa | 0 mm | - | 0 W/m² | - |
| 1777787575 | 7.22° C | 35% | 1306.8 hPa | 0 mm | - | 0 W/m² | - |
| 1777787269 | 7.22° C | 34% | 1306.8 hPa | 0 mm | - | 0 W/m² | - |
| 1777786961 | 7.22° C | 35% | 1306.7 hPa | 0 mm | - | 0 W/m² | - |
| 1777786658 | 7.22° C | 34% | 1306.6 hPa | 0 mm | - | 0 W/m² | - |
| 1777786357 | 7.78° C | 34% | 1306.8 hPa | 0 mm | - | 0 W/m² | - |
| 1777786053 | 7.78° C | 34% | 1306.7 hPa | 0 mm | - | 0 W/m² | - |
| 1777785750 | 7.78° C | 33% | 1306.7 hPa | 0 mm | - | 0 W/m² | - |
* Rain latest hour (hover to see other rain measurements)
** Current wind speed in m/s (hover to see current wind gust speed)